createdAt,value
2022-11-02T00:01:22.646Z,2.50
2022-11-02T00:03:49.146Z,2.47
2022-11-02T00:06:15.599Z,2.30
2022-11-02T00:08:42.164Z,2.43
2022-11-02T00:11:09.084Z,2.10
2022-11-02T00:13:35.553Z,2.23
2022-11-02T00:16:09.696Z,2.10
2022-11-02T00:18:37.668Z,2.10
2022-11-02T00:21:04.768Z,2.13
2022-11-02T00:23:32.174Z,1.90
2022-11-02T00:26:02.560Z,2.17
2022-11-02T00:28:30.286Z,2.03
2022-11-02T00:30:56.728Z,1.90
2022-11-02T00:33:23.286Z,2.20
2022-11-02T00:35:49.775Z,2.10
2022-11-02T00:38:16.712Z,2.20
2022-11-02T00:40:43.936Z,1.80
2022-11-02T00:43:10.906Z,2.23
2022-11-02T00:45:38.380Z,2.20
2022-11-02T00:48:05.878Z,2.10
2022-11-02T00:50:32.671Z,2.23
2022-11-02T00:52:59.651Z,2.10
2022-11-02T00:55:26.331Z,2.47
2022-11-02T00:57:56.278Z,2.17
2022-11-02T01:00:22.828Z,2.40
2022-11-02T01:02:49.397Z,2.40
2022-11-02T01:05:16.107Z,2.30
2022-11-02T01:07:42.599Z,2.10
2022-11-02T01:10:10.747Z,1.93
2022-11-02T01:12:38.730Z,2.27
2022-11-02T01:15:07.990Z,2.10
2022-11-02T01:17:34.642Z,2.07
2022-11-02T01:20:05.493Z,2.00
2022-11-02T01:22:32.472Z,1.83
2022-11-02T01:24:58.912Z,2.10
2022-11-02T01:27:26.261Z,2.27
2022-11-02T01:29:52.703Z,2.37
2022-11-02T01:32:19.141Z,2.00
2022-11-02T01:34:45.592Z,1.63
2022-11-02T01:37:12.063Z,1.63
2022-11-02T01:39:38.525Z,1.87
2022-11-02T01:42:17.074Z,1.80
2022-11-02T01:44:44.876Z,1.80
2022-11-02T01:47:21.527Z,1.90
2022-11-02T01:49:53.323Z,1.57
2022-11-02T01:52:24.508Z,1.60
2022-11-02T01:54:55.871Z,1.60
2022-11-02T01:57:22.810Z,1.90
2022-11-02T01:59:55.981Z,1.60
2022-11-02T02:02:24.625Z,1.63
2022-11-02T02:04:59.290Z,1.50
2022-11-02T02:07:26.968Z,1.60
2022-11-02T02:09:55.156Z,1.60
2022-11-02T02:12:23.915Z,2.10
2022-11-02T02:14:51.218Z,1.60
2022-11-02T02:17:31.629Z,1.60
2022-11-02T02:20:14.862Z,1.70
2022-11-02T02:23:13.448Z,1.80
2022-11-02T02:26:38.741Z,1.77
2022-11-02T02:29:13.985Z,1.50
2022-11-02T02:31:46.911Z,1.77
2022-11-02T02:34:19.758Z,1.60
2022-11-02T02:36:52.176Z,1.50
2022-11-02T02:39:36.217Z,1.40
2022-11-02T02:42:09.859Z,1.40
2022-11-02T02:44:37.210Z,1.43
2022-11-02T02:47:14.131Z,1.80
2022-11-02T02:49:50.223Z,1.70
2022-11-02T02:52:19.790Z,1.70
2022-11-02T02:54:49.822Z,1.47
2022-11-02T02:57:21.674Z,1.23
2022-11-02T02:59:49.148Z,1.40
2022-11-02T03:02:30.294Z,1.40
2022-11-02T03:04:56.940Z,1.40
2022-11-02T03:07:31.083Z,1.37
2022-11-02T03:10:20.761Z,1.60
2022-11-02T03:13:16.571Z,1.27
2022-11-02T03:15:54.677Z,1.20
2022-11-02T03:18:36.368Z,1.43
2022-11-02T03:21:30.174Z,1.70
2022-11-02T03:23:59.731Z,1.30
2022-11-02T03:26:45.757Z,1.40
2022-11-02T03:29:21.522Z,1.40
2022-11-02T03:31:57.892Z,1.33
2022-11-02T03:34:26.591Z,1.57
2022-11-02T03:37:19.510Z,1.53
2022-11-02T03:39:50.143Z,1.50
2022-11-02T03:42:21.274Z,1.30
2022-11-02T03:44:57.745Z,1.33
2022-11-02T03:47:26.124Z,1.37
2022-11-02T03:49:55.525Z,1.10
2022-11-02T03:52:28.000Z,1.93
2022-11-02T03:55:03.532Z,1.60
2022-11-02T03:57:40.523Z,1.20
2022-11-02T04:00:14.499Z,1.20
2022-11-02T04:02:45.638Z,1.23
2022-11-02T04:05:13.358Z,1.30
2022-11-02T04:08:03.731Z,1.30
2022-11-02T04:10:31.234Z,1.40
2022-11-02T04:13:16.447Z,1.40
2022-11-02T04:15:43.299Z,1.20
2022-11-02T04:18:29.377Z,1.43
2022-11-02T04:20:55.918Z,1.53
2022-11-02T04:23:40.965Z,1.40
2022-11-02T04:26:07.523Z,1.43
2022-11-02T04:28:43.915Z,1.27
2022-11-02T04:31:12.961Z,1.20
2022-11-02T04:33:41.304Z,1.47
2022-11-02T04:36:14.013Z,1.50
2022-11-02T04:38:41.217Z,1.40
2022-11-02T04:41:39.531Z,1.30
2022-11-02T04:44:11.836Z,1.70
2022-11-02T04:46:39.709Z,1.20
2022-11-02T04:49:09.172Z,1.20
2022-11-02T04:51:40.079Z,1.13
2022-11-02T04:54:07.872Z,1.37
2022-11-02T04:56:34.593Z,1.30
2022-11-02T04:59:01.918Z,1.57
2022-11-02T05:01:31.381Z,1.57
2022-11-02T05:04:00.251Z,1.20
2022-11-02T05:06:29.433Z,1.60
2022-11-02T05:08:56.159Z,1.60
2022-11-02T05:11:24.320Z,1.47
2022-11-02T05:13:51.613Z,1.20
2022-11-02T05:16:19.304Z,2.37
2022-11-02T05:18:49.155Z,1.50
2022-11-02T05:21:17.227Z,1.60
2022-11-02T05:23:43.701Z,1.63
2022-11-02T05:26:12.073Z,1.47
2022-11-02T05:28:42.415Z,1.43
2022-11-02T05:31:08.925Z,1.50
2022-11-02T05:33:36.729Z,1.60
2022-11-02T05:36:10.999Z,1.30
2022-11-02T05:41:12.261Z,1.43
2022-11-02T05:43:40.056Z,1.70
2022-11-02T05:46:09.060Z,1.17
2022-11-02T05:48:35.547Z,1.40
2022-11-02T05:51:03.836Z,1.40
2022-11-02T05:53:34.091Z,2.03
2022-11-02T05:56:01.954Z,1.57
2022-11-02T05:58:29.158Z,1.47
2022-11-02T06:01:00.091Z,1.37
2022-11-02T06:03:26.952Z,1.30
2022-11-02T06:05:58.135Z,1.43
2022-11-02T06:08:24.750Z,1.83
2022-11-02T06:10:51.229Z,1.30
2022-11-02T06:13:17.702Z,1.30
2022-11-02T06:15:44.108Z,1.30
2022-11-02T06:18:10.615Z,1.70
2022-11-02T06:20:37.111Z,1.90
2022-11-02T06:23:03.959Z,2.40
2022-11-02T06:25:30.707Z,1.60
2022-11-02T06:27:57.540Z,2.73
2022-11-02T06:30:28.150Z,1.90
2022-11-02T06:32:54.964Z,1.80
2022-11-02T06:35:22.421Z,1.40
2022-11-02T06:37:48.975Z,1.60
2022-11-02T06:40:15.905Z,1.53
2022-11-02T06:42:50.411Z,1.60
2022-11-02T06:45:24.134Z,1.40
2022-11-02T06:47:51.003Z,1.93
2022-11-02T06:50:17.655Z,1.90
2022-11-02T06:52:45.823Z,1.90
2022-11-02T06:55:14.074Z,2.20
2022-11-02T06:57:41.900Z,1.77
2022-11-02T07:00:16.554Z,2.07
2022-11-02T07:02:45.813Z,2.70
2022-11-02T07:05:12.858Z,1.73
2022-11-02T07:07:39.418Z,1.93
2022-11-02T07:10:09.033Z,1.40
2022-11-02T07:12:35.492Z,2.23
2022-11-02T07:15:01.931Z,1.40
2022-11-02T07:17:32.156Z,1.50
2022-11-02T07:19:59.009Z,1.83
2022-11-02T07:22:25.543Z,1.53
2022-11-02T07:24:52.167Z,1.90
2022-11-02T07:27:20.624Z,1.80
2022-11-02T07:29:47.340Z,2.03
2022-11-02T07:32:13.905Z,1.47
2022-11-02T07:34:40.453Z,1.23
2022-11-02T07:37:06.889Z,2.10
2022-11-02T07:39:33.321Z,1.20
2022-11-02T07:41:59.868Z,2.00
2022-11-02T07:44:26.397Z,1.67
2022-11-02T07:46:52.919Z,1.57
2022-11-02T07:49:21.679Z,2.10
2022-11-02T07:51:48.494Z,1.40
2022-11-02T07:54:14.982Z,1.60
2022-11-02T07:56:41.424Z,1.60
2022-11-02T07:59:10.454Z,1.70
2022-11-02T08:01:36.999Z,1.10
2022-11-02T08:04:03.586Z,1.40
2022-11-02T08:06:30.117Z,1.70
2022-11-02T08:08:57.288Z,1.40
2022-11-02T08:11:23.787Z,1.60
2022-11-02T08:13:50.262Z,2.03
2022-11-02T08:16:16.819Z,1.37
2022-11-02T08:18:43.344Z,1.27
2022-11-02T08:21:09.806Z,2.10
2022-11-02T08:23:36.235Z,1.63
2022-11-02T08:26:02.666Z,1.27
2022-11-02T08:28:32.280Z,1.60
2022-11-02T08:30:59.135Z,1.50
2022-11-02T08:33:25.659Z,1.50
2022-11-02T08:35:53.155Z,1.53
2022-11-02T08:38:22.540Z,1.80
2022-11-02T08:40:49.614Z,2.10
2022-11-02T08:43:16.382Z,1.87
2022-11-02T08:48:32.320Z,1.90
2022-11-02T08:50:59.111Z,1.77
2022-11-02T08:53:25.588Z,1.90
2022-11-02T08:55:52.068Z,1.63
2022-11-02T08:58:18.647Z,1.93
2022-11-02T09:00:48.700Z,1.63
2022-11-02T09:03:17.192Z,1.80
2022-11-02T09:05:46.967Z,1.80
2022-11-02T09:08:18.876Z,1.77
2022-11-02T09:10:49.140Z,1.70
2022-11-02T09:13:18.286Z,1.60
2022-11-02T09:15:44.724Z,2.37
2022-11-02T09:18:11.240Z,1.53
2022-11-02T09:20:37.921Z,1.70
2022-11-02T09:23:04.532Z,1.80
2022-11-02T09:25:31.106Z,1.43
2022-11-02T09:27:58.408Z,2.10
2022-11-02T09:30:26.278Z,1.80
2022-11-02T09:32:57.794Z,1.60
2022-11-02T09:35:26.258Z,1.73
2022-11-02T09:37:52.803Z,2.10
2022-11-02T09:40:37.857Z,1.70
2022-11-02T09:43:13.422Z,2.37
2022-11-02T09:45:55.193Z,2.30
2022-11-02T09:48:44.153Z,1.67
2022-11-02T09:51:25.481Z,2.00
2022-11-02T09:54:06.820Z,3.00
2022-11-02T09:56:35.204Z,5.60
2022-11-02T09:59:13.474Z,3.80
2022-11-02T10:01:58.288Z,2.17
2022-11-02T10:04:46.735Z,2.17
2022-11-02T10:07:50.807Z,2.20
2022-11-02T10:10:27.505Z,2.13
2022-11-02T10:13:10.434Z,3.93
2022-11-02T10:15:47.754Z,1.70
2022-11-02T10:18:20.593Z,2.20
2022-11-02T10:20:51.434Z,1.90
2022-11-02T10:23:33.470Z,2.60
2022-11-02T10:26:02.062Z,1.90
2022-11-02T10:28:34.916Z,1.23
2022-11-02T10:31:02.745Z,1.30
2022-11-02T10:33:30.860Z,1.37
2022-11-02T10:36:19.483Z,1.27
2022-11-02T10:39:01.216Z,1.40
2022-11-02T10:41:58.419Z,1.23
2022-11-02T10:44:46.225Z,1.20
2022-11-02T10:47:19.956Z,1.30
2022-11-02T10:50:14.449Z,1.30
2022-11-02T10:52:44.692Z,1.47
2022-11-02T10:55:37.082Z,1.50
2022-11-02T10:58:06.606Z,1.20
2022-11-02T11:00:37.340Z,1.40
2022-11-02T11:03:09.451Z,1.10
2022-11-02T11:05:50.109Z,1.20
2022-11-02T11:08:28.444Z,1.40
2022-11-02T11:10:54.993Z,1.17
2022-11-02T11:16:14.750Z,1.47
2022-11-02T11:21:40.321Z,1.20
2022-11-02T11:24:30.305Z,1.40
2022-11-02T11:27:12.440Z,1.30
2022-11-02T11:29:41.459Z,1.20
2022-11-02T11:32:22.029Z,1.17
2022-11-02T11:34:59.887Z,1.30
2022-11-02T11:37:26.752Z,1.33
2022-11-02T11:39:58.410Z,1.00
2022-11-02T11:42:28.082Z,1.20
2022-11-02T11:44:59.279Z,0.80
2022-11-02T11:47:28.440Z,1.20
2022-11-02T11:50:13.952Z,1.10
2022-11-02T11:52:43.260Z,0.90
2022-11-02T11:55:31.634Z,0.90
2022-11-02T11:58:27.004Z,1.30
2022-11-02T12:01:16.131Z,1.33
2022-11-02T12:04:03.106Z,1.50
2022-11-02T12:06:43.211Z,0.93
2022-11-02T12:09:20.776Z,1.30
2022-11-02T12:12:10.956Z,1.10
2022-11-02T12:15:13.012Z,1.20
2022-11-02T12:18:01.144Z,1.50
2022-11-02T12:20:47.444Z,1.07
2022-11-02T12:23:46.021Z,1.20
2022-11-02T12:26:26.697Z,1.30
2022-11-02T12:29:17.756Z,1.20
2022-11-02T12:31:50.769Z,1.40
2022-11-02T12:34:22.884Z,1.17
2022-11-02T12:37:27.400Z,1.47
2022-11-02T12:40:13.359Z,1.23
2022-11-02T12:43:10.184Z,1.47
2022-11-02T12:46:13.511Z,1.30
2022-11-02T12:49:07.136Z,1.20
2022-11-02T12:51:40.745Z,1.27
2022-11-02T12:54:11.939Z,1.00
2022-11-02T12:56:49.895Z,1.73
2022-11-02T12:59:22.031Z,1.20
2022-11-02T13:01:53.377Z,1.30
2022-11-02T13:04:36.865Z,1.10
2022-11-02T13:07:11.645Z,1.00
2022-11-02T13:09:54.508Z,1.17
2022-11-02T13:12:24.636Z,1.00
2022-11-02T13:14:58.272Z,1.23
2022-11-02T13:17:40.760Z,1.00
2022-11-02T13:20:18.797Z,1.10
2022-11-02T13:22:51.309Z,1.03
2022-11-02T13:25:22.169Z,1.00
2022-11-02T13:27:55.158Z,1.03
2022-11-02T13:30:21.681Z,1.10
2022-11-02T13:33:19.686Z,1.00
2022-11-02T13:35:47.191Z,1.10
2022-11-02T13:38:37.809Z,1.10
2022-11-02T13:41:24.832Z,1.30
2022-11-02T13:44:11.391Z,1.20
2022-11-02T13:46:58.673Z,1.40
2022-11-02T13:49:30.672Z,1.30
2022-11-02T13:52:03.438Z,1.20
2022-11-02T13:54:46.099Z,1.30
2022-11-02T13:57:35.691Z,1.90
2022-11-02T14:00:04.830Z,1.63
2022-11-02T14:02:37.407Z,1.30
2022-11-02T14:05:04.347Z,1.60
2022-11-02T14:07:35.509Z,1.40
2022-11-02T14:10:09.847Z,1.60
2022-11-02T14:12:45.300Z,1.10
2022-11-02T14:15:14.645Z,1.43
2022-11-02T14:17:53.361Z,1.10
2022-11-02T14:20:36.034Z,1.23
2022-11-02T14:23:11.725Z,1.30
2022-11-02T14:25:49.214Z,1.17
2022-11-02T14:28:25.672Z,1.40
2022-11-02T14:31:04.217Z,1.40
2022-11-02T14:33:38.639Z,1.23
2022-11-02T14:36:17.087Z,1.27
2022-11-02T14:38:58.187Z,1.23
2022-11-02T14:41:49.948Z,0.90
2022-11-02T14:44:37.625Z,1.10
2022-11-02T14:47:16.408Z,1.10
2022-11-02T14:49:50.816Z,1.00
2022-11-02T14:52:26.597Z,1.00
2022-11-02T14:54:59.559Z,0.77
2022-11-02T14:57:52.279Z,1.20
2022-11-02T15:00:27.700Z,0.90
2022-11-02T15:02:54.436Z,0.97
2022-11-02T15:05:23.624Z,1.23
2022-11-02T15:07:54.635Z,1.00
2022-11-02T15:10:21.025Z,0.90
2022-11-02T15:12:48.568Z,0.93
2022-11-02T15:15:36.571Z,0.93
2022-11-02T15:18:30.909Z,1.40
2022-11-02T15:21:10.041Z,1.10
2022-11-02T15:24:01.485Z,1.10
2022-11-02T15:26:40.855Z,0.90
2022-11-02T15:29:36.898Z,1.00
2022-11-02T15:32:06.476Z,0.90
2022-11-02T15:34:47.470Z,1.00
2022-11-02T15:37:20.155Z,1.10
2022-11-02T15:39:55.306Z,1.00
2022-11-02T15:42:41.029Z,1.17
2022-11-02T15:45:49.387Z,1.00
2022-11-02T15:48:42.852Z,0.97
2022-11-02T15:51:37.099Z,1.03
2022-11-02T15:54:09.597Z,0.80
2022-11-02T15:56:49.067Z,1.30
2022-11-02T15:59:18.515Z,1.30
2022-11-02T16:01:45.359Z,1.30
2022-11-02T16:04:20.254Z,1.40
2022-11-02T16:06:47.149Z,1.70
2022-11-02T16:09:40.638Z,1.60
2022-11-02T16:12:19.200Z,1.90
2022-11-02T16:14:51.257Z,1.70
2022-11-02T16:17:28.527Z,1.80
2022-11-02T16:20:22.041Z,1.70
2022-11-02T16:22:51.249Z,1.53
2022-11-02T16:25:25.829Z,1.90
2022-11-02T16:27:52.479Z,1.57
2022-11-02T16:30:21.259Z,1.40
2022-11-02T16:32:53.200Z,1.43
2022-11-02T16:35:21.266Z,1.40
2022-11-02T16:37:49.666Z,1.50
2022-11-02T16:40:18.528Z,1.43
2022-11-02T16:42:46.963Z,1.27
2022-11-02T16:45:43.862Z,1.50
2022-11-02T16:48:32.940Z,1.20
2022-11-02T16:51:02.200Z,3.30
2022-11-02T16:53:31.489Z,8.80
2022-11-02T16:56:13.489Z,10.17
2022-11-02T16:58:47.317Z,10.97
2022-11-02T17:01:22.723Z,10.53
2022-11-02T17:03:50.116Z,10.10
2022-11-02T17:06:18.610Z,9.00
2022-11-02T17:08:52.220Z,8.27
2022-11-02T17:11:19.033Z,9.00
2022-11-02T17:13:52.520Z,10.47
2022-11-02T17:16:19.605Z,8.03
2022-11-02T17:18:46.400Z,19.00
2022-11-02T17:21:12.990Z,20.07
2022-11-02T17:23:42.547Z,15.77
2022-11-02T17:26:31.736Z,12.57
2022-11-02T17:29:24.015Z,12.53
2022-11-02T17:32:01.030Z,12.93
2022-11-02T17:34:28.239Z,11.03
2022-11-02T17:36:55.112Z,9.20
2022-11-02T17:39:21.791Z,7.77
2022-11-02T17:42:15.014Z,7.17
2022-11-02T17:44:42.129Z,6.67
2022-11-02T17:47:13.510Z,6.67
2022-11-02T17:49:40.044Z,10.43
2022-11-02T17:52:07.034Z,24.07
2022-11-02T17:54:33.518Z,21.70
2022-11-02T17:57:01.544Z,16.67
2022-11-02T17:59:28.079Z,14.23
2022-11-02T18:01:54.624Z,14.73
2022-11-02T18:04:21.164Z,6.00
2022-11-02T18:06:47.596Z,5.93
2022-11-02T18:09:14.604Z,7.13
2022-11-02T18:11:41.655Z,8.90
2022-11-02T18:14:13.967Z,9.07
2022-11-02T18:16:40.411Z,10.17
2022-11-02T18:19:06.890Z,10.40
2022-11-02T18:21:33.777Z,7.83
2022-11-02T18:24:00.238Z,6.73
2022-11-02T18:26:26.687Z,6.30
2022-11-02T18:28:53.140Z,11.50
2022-11-02T18:31:19.664Z,14.50
2022-11-02T18:33:46.127Z,16.43
2022-11-02T18:36:12.609Z,13.87
2022-11-02T18:38:39.139Z,9.83
2022-11-02T18:41:27.022Z,10.87
2022-11-02T18:43:59.087Z,13.00
2022-11-02T18:46:30.672Z,11.87
2022-11-02T18:48:57.975Z,10.27
2022-11-02T18:51:24.848Z,9.80
2022-11-02T18:53:56.564Z,9.70
2022-11-02T18:56:23.760Z,12.10
2022-11-02T18:58:51.822Z,14.83
2022-11-02T19:01:19.852Z,10.47
2022-11-02T19:03:50.871Z,8.17
2022-11-02T19:06:36.770Z,7.03
2022-11-02T19:09:19.067Z,10.40
2022-11-02T19:11:56.557Z,12.83
2022-11-02T19:14:23.993Z,12.60
2022-11-02T19:16:50.469Z,8.30
2022-11-02T19:19:17.068Z,7.20
2022-11-02T19:21:43.580Z,7.37
2022-11-02T19:24:10.144Z,7.93
2022-11-02T19:26:36.944Z,7.17
2022-11-02T19:29:06.365Z,5.67
2022-11-02T19:31:34.284Z,6.00
2022-11-02T19:34:00.955Z,6.10
2022-11-02T19:36:27.768Z,8.70
2022-11-02T19:38:54.219Z,9.93
2022-11-02T19:41:21.690Z,9.17
2022-11-02T19:43:48.243Z,8.03
2022-11-02T19:46:17.147Z,8.60
2022-11-02T19:48:43.654Z,9.13
2022-11-02T19:51:19.246Z,14.50
2022-11-02T19:53:49.553Z,17.23
2022-11-02T19:56:16.727Z,8.80
2022-11-02T19:58:45.295Z,5.90
2022-11-02T20:01:36.435Z,6.00
2022-11-02T20:04:04.497Z,5.20
2022-11-02T20:06:39.608Z,6.20
2022-11-02T20:09:12.920Z,5.97
2022-11-02T20:11:44.200Z,5.67
2022-11-02T20:14:12.287Z,6.00
2022-11-02T20:16:39.462Z,6.90
2022-11-02T20:19:06.589Z,8.73
2022-11-02T20:21:36.841Z,6.50
2022-11-02T20:24:08.184Z,6.17
2022-11-02T20:26:36.450Z,5.53
2022-11-02T20:29:05.246Z,4.80
2022-11-02T20:31:36.940Z,4.10
2022-11-02T20:34:05.234Z,5.50
2022-11-02T20:36:31.917Z,5.03
2022-11-02T20:38:58.796Z,5.33
2022-11-02T20:41:26.080Z,6.43
2022-11-02T20:43:55.083Z,5.83
2022-11-02T20:46:37.039Z,5.87
2022-11-02T20:49:14.334Z,5.20
2022-11-02T20:51:51.192Z,4.20
2022-11-02T20:54:19.480Z,3.63
2022-11-02T20:56:46.600Z,3.50
2022-11-02T20:59:13.088Z,3.70
2022-11-02T21:01:39.783Z,3.80
2022-11-02T21:04:06.701Z,3.30
2022-11-02T21:06:33.279Z,3.80
2022-11-02T21:09:00.463Z,3.80
2022-11-02T21:11:45.725Z,4.40
2022-11-02T21:14:12.175Z,4.67
2022-11-02T21:16:38.715Z,4.83
2022-11-02T21:19:06.715Z,4.47
2022-11-02T21:21:33.277Z,4.20
2022-11-02T21:23:59.795Z,3.57
2022-11-02T21:26:26.301Z,3.50
2022-11-02T21:28:52.778Z,3.17
2022-11-02T21:31:21.405Z,3.40
2022-11-02T21:33:49.525Z,3.50
2022-11-02T21:36:17.589Z,3.33
2022-11-02T21:38:45.116Z,4.77
2022-11-02T21:41:17.971Z,4.40
2022-11-02T21:43:44.426Z,4.60
2022-11-02T21:46:10.960Z,4.53
2022-11-02T21:48:38.193Z,4.80
2022-11-02T21:51:15.426Z,4.33
2022-11-02T21:53:43.971Z,4.20
2022-11-02T21:56:11.905Z,4.33
2022-11-02T21:58:44.624Z,3.70
2022-11-02T22:01:40.686Z,3.93
2022-11-02T22:04:08.576Z,4.07
2022-11-02T22:06:37.398Z,3.77
2022-11-02T22:09:07.179Z,3.60
2022-11-02T22:11:33.714Z,3.63
2022-11-02T22:14:01.214Z,3.57
2022-11-02T22:16:34.769Z,3.80
2022-11-02T22:19:04.200Z,3.90
2022-11-02T22:21:34.464Z,3.87
2022-11-02T22:24:01.481Z,4.40
2022-11-02T22:26:30.261Z,4.33
2022-11-02T22:28:57.966Z,4.53
2022-11-02T22:31:27.459Z,3.83
2022-11-02T22:33:56.611Z,4.83
2022-11-02T22:36:25.485Z,3.17
2022-11-02T22:38:55.956Z,3.40
2022-11-02T22:41:24.222Z,3.53
2022-11-02T22:43:53.819Z,3.67
2022-11-02T22:46:24.671Z,3.50
2022-11-02T22:48:52.235Z,3.23
2022-11-02T22:51:20.938Z,3.37
2022-11-02T22:53:48.282Z,3.27
2022-11-02T22:56:16.088Z,2.60
2022-11-02T22:58:44.422Z,2.83
2022-11-02T23:01:16.498Z,3.17
2022-11-02T23:03:43.620Z,2.93
2022-11-02T23:06:10.726Z,3.60
2022-11-02T23:08:39.552Z,2.50
2022-11-02T23:11:23.206Z,2.80
2022-11-02T23:14:07.787Z,3.03
2022-11-02T23:16:37.003Z,2.43
2022-11-02T23:19:30.993Z,3.20
2022-11-02T23:22:25.801Z,3.03
2022-11-02T23:25:12.873Z,3.40
2022-11-02T23:28:06.624Z,4.10
2022-11-02T23:30:53.944Z,4.23
2022-11-02T23:33:22.190Z,5.00
2022-11-02T23:36:07.867Z,4.83
2022-11-02T23:38:53.109Z,5.37
2022-11-02T23:41:19.911Z,4.60
2022-11-02T23:43:47.186Z,4.03
2022-11-02T23:46:14.228Z,3.70
2022-11-02T23:48:47.055Z,3.10
2022-11-02T23:51:34.786Z,2.70
2022-11-02T23:54:19.674Z,2.83
2022-11-02T23:56:46.272Z,2.97
2022-11-02T23:59:17.634Z,3.00
